Time;durP1;ratioP1;P1;durP2;ratioP2;P2;SDS_P1;SDS_P2;PMS_P1;PMS_P2;Temp;Humidity;BMP_temperature;BMP_pressure;BME280_temperature;BME280_humidity;BME280_pressure;Samples;Min_cycle;Max_cycle;Signal;HPM_P1;HPM_P2
2021/07/15 00:00:45;;;;;;;11.93;5.90;;;;;;;;;;6134924;23;20330;-63
2021/07/15 00:03:12;;;;;;;10.27;5.90;;;;;;;;;;6135082;23;20013;-63
2021/07/15 00:05:38;;;;;;;11.70;6.25;;;;;;;;;;6135273;23;20480;-62
2021/07/15 00:08:05;;;;;;;10.63;5.45;;;;;;;;;;6134808;23;20012;-63
2021/07/15 00:10:32;;;;;;;6.90;4.38;;;;;;;;;;6134848;23;20006;-63
2021/07/15 00:12:59;;;;;;;6.78;4.15;;;;;;;;;;6134646;23;20002;-63
2021/07/15 00:15:25;;;;;;;5.50;4.03;;;;;;;;;;6134699;23;20102;-63
2021/07/15 00:17:52;;;;;;;8.88;4.40;;;;;;;;;;6135004;23;20414;-63
2021/07/15 00:20:17;;;;;;;6.18;4.60;;;;;;;;;;6133147;23;20082;-64
2021/07/15 00:22:43;;;;;;;9.75;4.72;;;;;;;;;;6133103;23;20005;-63
2021/07/15 00:25:13;;;;;;;6.28;4.60;;;;;;;;;;6134765;23;19998;-63
2021/07/15 00:27:38;;;;;;;7.32;5.10;;;;;;;;;;6134680;23;20006;-62
2021/07/15 00:30:04;;;;;;;9.23;5.25;;;;;;;;;;6133025;23;20072;-62
2021/07/15 00:32:30;;;;;;;6.78;5.20;;;;;;;;;;6108555;23;20006;-63
2021/07/15 00:34:56;;;;;;;5.75;4.90;;;;;;;;;;6133414;23;20101;-63
2021/07/15 00:37:21;;;;;;;8.68;5.07;;;;;;;;;;6134484;23;20009;-63
2021/07/15 00:39:47;;;;;;;5.32;4.80;;;;;;;;;;6133659;23;20347;-63
2021/07/15 00:42:12;;;;;;;4.57;4.03;;;;;;;;;;6127767;23;20457;-63
2021/07/15 00:44:39;;;;;;;6.22;3.97;;;;;;;;;;6128102;23;20006;-63
2021/07/15 00:47:04;;;;;;;4.13;3.72;;;;;;;;;;6128148;23;20006;-63
2021/07/15 00:49:29;;;;;;;4.78;3.63;;;;;;;;;;6127904;23;20002;-63
2021/07/15 00:51:55;;;;;;;3.60;3.25;;;;;;;;;;6128324;23;20012;-63
2021/07/15 00:54:21;;;;;;;4.47;3.10;;;;;;;;;;6102033;23;20027;-64
2021/07/15 00:56:46;;;;;;;6.10;3.70;;;;;;;;;;6128186;23;20006;-64
2021/07/15 00:59:12;;;;;;;5.03;3.40;;;;;;;;;;6128076;23;20025;-64
2021/07/15 01:01:37;;;;;;;7.57;3.00;;;;;;;;;;6102463;23;20009;-64
2021/07/15 01:04:03;;;;;;;6.25;3.55;;;;;;;;;;6078095;23;20006;-64
2021/07/15 01:06:28;;;;;;;8.15;3.83;;;;;;;;;;6127941;23;20010;-64
2021/07/15 01:08:54;;;;;;;6.68;3.33;;;;;;;;;;6127800;23;20465;-63
2021/07/15 01:11:22;;;;;;;5.20;3.53;;;;;;;;;;6127749;23;20033;-64
2021/07/15 01:13:53;;;;;;;6.18;3.40;;;;;;;;;;6101473;23;20370;-64
2021/07/15 01:16:37;;;;;;;3.42;3.15;;;;;;;;;;6127706;23;20314;-64
2021/07/15 01:19:24;;;;;;;4.00;3.50;;;;;;;;;;6127731;23;20033;-64
2021/07/15 01:22:08;;;;;;;5.50;3.25;;;;;;;;;;6128060;23;20006;-65
2021/07/15 01:24:52;;;;;;;4.78;3.45;;;;;;;;;;6127585;23;20322;-64
2021/07/15 01:27:21;;;;;;;6.88;3.53;;;;;;;;;;6127496;23;20006;-63
2021/07/15 01:29:58;;;;;;;7.15;3.30;;;;;;;;;;6127242;23;20090;-63
2021/07/15 01:32:32;;;;;;;5.25;3.20;;;;;;;;;;6127232;23;20426;-63
2021/07/15 01:34:58;;;;;;;5.35;3.13;;;;;;;;;;6101057;23;20014;-62
2021/07/15 01:37:24;;;;;;;8.07;3.47;;;;;;;;;;6102223;23;19986;-64
2021/07/15 01:39:50;;;;;;;6.80;3.25;;;;;;;;;;6127026;23;20022;-64
2021/07/15 01:42:17;;;;;;;5.47;3.70;;;;;;;;;;6101600;23;20033;-64
2021/07/15 01:44:43;;;;;;;5.20;3.33;;;;;;;;;;6127608;23;20017;-63
2021/07/15 01:47:09;;;;;;;4.82;3.22;;;;;;;;;;6127210;23;20002;-63
2021/07/15 01:49:35;;;;;;;5.70;3.47;;;;;;;;;;6127085;23;20459;-63
2021/07/15 01:52:01;;;;;;;9.02;3.30;;;;;;;;;;6127005;23;20073;-63
2021/07/15 01:54:30;;;;;;;4.85;3.10;;;;;;;;;;6127227;23;20009;-64
2021/07/15 01:56:56;;;;;;;6.10;3.17;;;;;;;;;;6101317;23;20330;-64
2021/07/15 01:59:27;;;;;;;9.05;3.22;;;;;;;;;;6127421;23;20021;-63
2021/07/15 02:01:54;;;;;;;4.65;3.15;;;;;;;;;;6127524;23;20016;-63
2021/07/15 02:04:19;;;;;;;6.97;3.35;;;;;;;;;;6101442;23;20382;-62
2021/07/15 02:06:48;;;;;;;6.40;3.25;;;;;;;;;;6127297;23;20005;-64
2021/07/15 02:09:13;;;;;;;5.80;3.13;;;;;;;;;;6126864;23;20362;-64
2021/07/15 02:11:39;;;;;;;5.20;2.90;;;;;;;;;;6101264;23;20006;-63
2021/07/15 02:14:07;;;;;;;6.05;3.10;;;;;;;;;;6127136;23;19994;-64
2021/07/15 02:16:34;;;;;;;5.13;3.20;;;;;;;;;;6127425;23;20010;-64
2021/07/15 02:19:00;;;;;;;4.95;2.92;;;;;;;;;;6127214;23;20330;-63
2021/07/15 02:21:26;;;;;;;5.60;3.17;;;;;;;;;;6127250;23;20005;-63
2021/07/15 02:23:52;;;;;;;6.10;3.30;;;;;;;;;;6127158;23;20002;-64
2021/07/15 02:26:18;;;;;;;3.53;2.80;;;;;;;;;;6101122;23;20080;-64
2021/07/15 02:28:43;;;;;;;6.07;2.50;;;;;;;;;;6126320;23;20009;-64
2021/07/15 02:31:11;;;;;;;4.63;2.95;;;;;;;;;;6126809;23;20009;-65
2021/07/15 02:33:38;;;;;;;5.55;2.97;;;;;;;;;;6100938;23;20084;-64
2021/07/15 02:36:05;;;;;;;4.70;2.80;;;;;;;;;;6126944;23;20025;-63
2021/07/15 02:38:32;;;;;;;4.75;2.60;;;;;;;;;;6126984;23;20415;-63
2021/07/15 02:40:58;;;;;;;6.32;2.65;;;;;;;;;;6120178;23;20318;-63
2021/07/15 02:43:23;;;;;;;6.68;2.58;;;;;;;;;;6126919;23;20053;-64
2021/07/15 02:45:49;;;;;;;6.35;2.88;;;;;;;;;;6127173;23;20006;-65
2021/07/15 02:48:17;;;;;;;5.00;2.65;;;;;;;;;;6126767;23;20414;-65
2021/07/15 02:50:43;;;;;;;3.97;2.47;;;;;;;;;;6126906;23;20036;-65
2021/07/15 02:53:08;;;;;;;5.68;2.53;;;;;;;;;;6127146;23;20021;-65
2021/07/15 02:55:34;;;;;;;3.55;2.22;;;;;;;;;;6125402;23;20009;-65
2021/07/15 02:58:11;;;;;;;4.80;2.67;;;;;;;;;;6126891;23;19994;-63
2021/07/15 03:00:41;;;;;;;3.05;2.50;;;;;;;;;;6126742;23;20009;-63
2021/07/15 03:03:22;;;;;;;9.10;3.10;;;;;;;;;;6126971;23;20010;-63
2021/07/15 03:06:02;;;;;;;5.55;2.70;;;;;;;;;;6127054;23;20009;-63
2021/07/15 03:08:29;;;;;;;5.30;2.90;;;;;;;;;;6125190;23;20335;-63
2021/07/15 03:10:57;;;;;;;3.13;2.80;;;;;;;;;;6126471;23;19998;-63
2021/07/15 03:13:23;;;;;;;5.90;2.88;;;;;;;;;;6126854;23;20141;-63
2021/07/15 03:15:48;;;;;;;7.65;2.78;;;;;;;;;;6125576;23;20419;-63
2021/07/15 03:18:21;;;;;;;3.20;2.90;;;;;;;;;;6126791;23;20002;-63
2021/07/15 03:20:47;;;;;;;6.05;3.05;;;;;;;;;;6126457;23;20546;-63
2021/07/15 03:23:15;;;;;;;4.45;3.10;;;;;;;;;;6126606;23;20085;-63
2021/07/15 03:25:46;;;;;;;4.13;3.10;;;;;;;;;;6126704;23;20010;-63
2021/07/15 03:28:14;;;;;;;4.88;3.10;;;;;;;;;;6125572;23;20006;-63
2021/07/15 03:30:39;;;;;;;3.30;2.97;;;;;;;;;;6126129;23;20044;-64
2021/07/15 03:33:05;;;;;;;3.65;2.70;;;;;;;;;;6126760;23;20006;-64
2021/07/15 03:35:31;;;;;;;6.47;3.20;;;;;;;;;;6126788;23;20005;-64
2021/07/15 03:37:57;;;;;;;4.20;2.97;;;;;;;;;;6124676;23;20006;-64
2021/07/15 03:40:25;;;;;;;5.45;2.80;;;;;;;;;;6125775;23;20018;-63
2021/07/15 03:42:51;;;;;;;8.88;3.38;;;;;;;;;;6126469;23;20029;-63
2021/07/15 03:45:17;;;;;;;6.25;3.28;;;;;;;;;;6126655;23;20002;-63
2021/07/15 03:47:46;;;;;;;4.63;2.83;;;;;;;;;;6126743;23;20434;-64
2021/07/15 03:50:13;;;;;;;6.80;3.20;;;;;;;;;;6126484;23;20048;-63
2021/07/15 03:52:39;;;;;;;4.03;3.22;;;;;;;;;;6126367;23;20002;-64
2021/07/15 03:55:05;;;;;;;6.22;3.13;;;;;;;;;;6100683;23;20326;-64
2021/07/15 03:57:31;;;;;;;5.97;3.17;;;;;;;;;;6126492;23;20010;-63
2021/07/15 03:59:57;;;;;;;3.90;3.10;;;;;;;;;;6126308;23;20382;-63
2021/07/15 04:02:23;;;;;;;7.07;3.70;;;;;;;;;;6126195;23;20006;-62
2021/07/15 04:04:50;;;;;;;3.85;3.17;;;;;;;;;;6126151;23;20001;-66
2021/07/15 04:07:17;;;;;;;3.40;3.10;;;;;;;;;;6100265;23;20081;-66
2021/07/15 04:09:44;;;;;;;4.97;3.30;;;;;;;;;;6125805;23;20026;-66
2021/07/15 04:12:11;;;;;;;4.85;3.20;;;;;;;;;;6125976;23;20061;-66
2021/07/15 04:14:39;;;;;;;4.75;3.13;;;;;;;;;;6100145;23;19998;-66
2021/07/15 04:17:09;;;;;;;8.88;3.50;;;;;;;;;;6127722;23;20002;-66
2021/07/15 04:19:35;;;;;;;3.72;3.30;;;;;;;;;;6127336;23;20010;-66
2021/07/15 04:22:05;;;;;;;6.40;3.47;;;;;;;;;;6128319;23;20085;-66
2021/07/15 04:24:31;;;;;;;4.03;3.60;;;;;;;;;;6128276;23;20005;-65
2021/07/15 04:26:58;;;;;;;3.45;3.10;;;;;;;;;;6127615;23;20032;-65
2021/07/15 04:29:23;;;;;;;4.90;3.17;;;;;;;;;;6101336;23;19998;-65
2021/07/15 04:32:08;;;;;;;4.13;3.20;;;;;;;;;;6128204;23;20013;-65
2021/07/15 04:34:34;;;;;;;4.97;3.13;;;;;;;;;;6128161;23;20002;-65
2021/07/15 04:37:00;;;;;;;3.50;2.80;;;;;;;;;;6127843;23;20002;-65
2021/07/15 04:39:27;;;;;;;4.35;3.20;;;;;;;;;;6127253;23;20014;-66
2021/07/15 04:41:56;;;;;;;5.35;2.88;;;;;;;;;;6127924;23;20014;-66
2021/07/15 04:44:22;;;;;;;4.50;2.90;;;;;;;;;;6127643;23;20442;-66
2021/07/15 04:46:50;;;;;;;3.72;2.63;;;;;;;;;;6127586;23;20005;-65
2021/07/15 04:49:16;;;;;;;9.38;3.30;;;;;;;;;;6101717;23;20089;-65
2021/07/15 04:51:43;;;;;;;6.28;3.00;;;;;;;;;;6127637;23;19998;-66
2021/07/15 04:54:09;;;;;;;3.28;2.97;;;;;;;;;;6127499;23;20084;-66
2021/07/15 04:56:35;;;;;;;3.63;3.33;;;;;;;;;;6127625;23;20032;-65
2021/07/15 04:59:02;;;;;;;4.10;3.30;;;;;;;;;;6127712;23;20010;-66
2021/07/15 05:01:27;;;;;;;4.90;3.20;;;;;;;;;;6127654;23;20022;-66
2021/07/15 05:03:53;;;;;;;3.90;3.30;;;;;;;;;;6127529;23;20010;-66
2021/07/15 05:06:21;;;;;;;4.63;3.08;;;;;;;;;;6127526;23;20331;-66
2021/07/15 05:08:47;;;;;;;6.53;3.40;;;;;;;;;;6127309;23;20053;-66
2021/07/15 05:11:12;;;;;;;4.65;3.85;;;;;;;;;;6127329;23;20476;-65
2021/07/15 05:13:38;;;;;;;4.53;3.60;;;;;;;;;;6127087;23;20093;-65
2021/07/15 05:16:04;;;;;;;4.93;3.85;;;;;;;;;;6127496;23;19997;-65
2021/07/15 05:18:29;;;;;;;4.10;3.72;;;;;;;;;;6127333;23;20001;-65
2021/07/15 05:20:55;;;;;;;6.13;4.15;;;;;;;;;;6101286;23;20002;-65
2021/07/15 05:23:20;;;;;;;5.95;4.80;;;;;;;;;;6127340;23;20002;-65
2021/07/15 05:25:46;;;;;;;7.05;4.68;;;;;;;;;;6101385;23;19994;-65
2021/07/15 05:28:11;;;;;;;5.22;4.57;;;;;;;;;;6101389;23;20013;-66
2021/07/15 05:30:36;;;;;;;4.18;3.88;;;;;;;;;;6127217;23;20002;-67
2021/07/15 05:33:02;;;;;;;5.68;4.03;;;;;;;;;;6127091;23;20033;-67
2021/07/15 05:35:28;;;;;;;4.88;4.18;;;;;;;;;;6127122;23;20022;-67
2021/07/15 05:37:53;;;;;;;6.65;5.20;;;;;;;;;;6101172;23;20093;-67
2021/07/15 05:40:19;;;;;;;6.25;5.30;;;;;;;;;;6126638;23;20457;-67
2021/07/15 05:42:44;;;;;;;5.82;5.22;;;;;;;;;;6127087;23;20060;-67
2021/07/15 05:45:10;;;;;;;6.45;5.80;;;;;;;;;;6127029;23;20010;-67
2021/07/15 05:47:35;;;;;;;6.88;4.72;;;;;;;;;;6127120;23;20006;-67
2021/07/15 05:50:01;;;;;;;6.45;4.97;;;;;;;;;;6126878;23;20061;-67
2021/07/15 05:52:26;;;;;;;8.13;5.10;;;;;;;;;;6126964;23;20331;-67
2021/07/15 05:54:56;;;;;;;5.72;5.07;;;;;;;;;;6127119;23;20048;-67
2021/07/15 05:57:22;;;;;;;;;;;;;;;;;;6127758;23;20013;-67
2021/07/15 05:59:47;;;;;;;5.53;4.53;;;;;;;;;;6126975;23;20233;-67
2021/07/15 06:02:13;;;;;;;7.53;4.80;;;;;;;;;;6100989;23;20086;-67
2021/07/15 06:04:38;;;;;;;5.75;4.38;;;;;;;;;;6100900;23;20495;-67
2021/07/15 06:07:04;;;;;;;5.32;4.57;;;;;;;;;;6126965;23;20014;-67
2021/07/15 06:09:29;;;;;;;4.90;4.40;;;;;;;;;;6126702;23;20002;-67
2021/07/15 06:11:54;;;;;;;7.00;4.90;;;;;;;;;;6127063;23;20034;-66
2021/07/15 06:14:20;;;;;;;8.27;4.88;;;;;;;;;;6100884;23;20010;-67
2021/07/15 06:16:45;;;;;;;7.57;5.35;;;;;;;;;;6126719;23;20434;-67
2021/07/15 06:19:11;;;;;;;5.55;4.60;;;;;;;;;;6126810;23;20311;-67
2021/07/15 06:21:37;;;;;;;5.93;4.05;;;;;;;;;;6126825;23;20092;-67
2021/07/15 06:24:02;;;;;;;6.13;4.50;;;;;;;;;;6100922;23;19997;-67
2021/07/15 06:26:27;;;;;;;6.00;4.15;;;;;;;;;;6126660;23;20057;-67
2021/07/15 06:28:53;;;;;;;5.82;4.00;;;;;;;;;;6126458;23;20104;-67
2021/07/15 06:31:18;;;;;;;5.32;4.22;;;;;;;;;;6126411;23;20374;-67
2021/07/15 06:33:44;;;;;;;7.35;4.43;;;;;;;;;;6100880;23;19994;-67
2021/07/15 06:36:09;;;;;;;4.28;3.88;;;;;;;;;;6126798;23;20002;-67
2021/07/15 06:38:36;;;;;;;5.90;4.18;;;;;;;;;;6126439;23;19998;-67
2021/07/15 06:41:06;;;;;;;5.32;3.83;;;;;;;;;;6120172;23;20036;-67
2021/07/15 06:43:31;;;;;;;7.47;4.05;;;;;;;;;;6126726;23;20006;-67
2021/07/15 06:45:59;;;;;;;5.97;3.88;;;;;;;;;;6126507;23;20030;-67
2021/07/15 06:48:24;;;;;;;5.80;4.10;;;;;;;;;;6125099;23;20001;-67
2021/07/15 06:50:50;;;;;;;5.60;3.67;;;;;;;;;;6126379;23;20010;-67
2021/07/15 06:53:16;;;;;;;7.75;3.97;;;;;;;;;;6126569;23;20304;-67
2021/07/15 06:55:42;;;;;;;5.65;3.80;;;;;;;;;;6126473;23;20006;-67
2021/07/15 06:58:07;;;;;;;5.10;3.88;;;;;;;;;;6126637;23;19997;-66
2021/07/15 07:00:33;;;;;;;5.43;3.70;;;;;;;;;;6126465;23;20430;-67
2021/07/15 07:02:58;;;;;;;5.47;4.35;;;;;;;;;;6126445;23;20410;-67
2021/07/15 07:05:24;;;;;;;7.05;3.90;;;;;;;;;;6126416;23;20014;-67
2021/07/15 07:07:49;;;;;;;5.97;3.58;;;;;;;;;;6124838;23;20005;-67
2021/07/15 07:10:16;;;;;;;4.50;4.05;;;;;;;;;;6126345;23;20006;-67
2021/07/15 07:12:41;;;;;;;5.72;4.22;;;;;;;;;;6126504;23;19994;-67
2021/07/15 07:15:10;;;;;;;5.85;4.57;;;;;;;;;;6125096;23;20013;-67
2021/07/15 07:17:35;;;;;;;7.45;4.72;;;;;;;;;;6126505;23;20004;-67
2021/07/15 07:20:01;;;;;;;6.95;4.30;;;;;;;;;;6126474;23;20029;-67
2021/07/15 10:41:44;;;;;;;2.55;2.35;;;;;;;;;;5058479;22;1338714;-61
2021/07/15 10:44:10;;;;;;;4.35;2.40;;;;;;;;;;5093527;28;20479;-62
2021/07/15 10:46:36;;;;;;;2.13;2.03;;;;;;;;;;5075339;28;20069;-61
2021/07/15 10:49:02;;;;;;;2.30;2.20;;;;;;;;;;5093519;28;20030;-61
2021/07/15 10:51:28;;;;;;;3.13;2.10;;;;;;;;;;5093425;28;20029;-61
2021/07/15 10:53:54;;;;;;;3.15;2.33;;;;;;;;;;5093441;28;20084;-61
2021/07/15 10:56:20;;;;;;;2.53;2.33;;;;;;;;;;5093392;28;20102;-61
2021/07/15 10:58:45;;;;;;;2.45;2.13;;;;;;;;;;5093151;28;20431;-61
2021/07/15 11:01:12;;;;;;;2.28;2.13;;;;;;;;;;5093341;28;20158;-61
2021/07/15 11:03:37;;;;;;;2.80;2.63;;;;;;;;;;5093365;28;20043;-61
2021/07/15 11:06:03;;;;;;;3.03;2.83;;;;;;;;;;5093350;28;20024;-61
2021/07/15 11:08:43;;;;;;;3.42;2.50;;;;;;;;;;5093384;28;20024;-61
2021/07/15 11:11:09;;;;;;;;;;;;;;;;;;5075859;28;20025;-68
2021/07/15 11:13:34;;;;;;;2.97;2.63;;;;;;;;;;5093332;28;19910;-66
2021/07/15 11:16:03;;;;;;;4.63;3.10;;;;;;;;;;5093130;28;20281;-68
2021/07/15 11:21:27;;;;;;;3.20;2.92;;;;;;;;;;5092900;28;20510;-67
2021/07/15 11:23:52;;;;;;;3.75;2.90;;;;;;;;;;5093237;28;20479;-67
2021/07/15 11:26:27;;;;;;;8.38;3.72;;;;;;;;;;5074985;28;20020;-67
2021/07/15 11:28:52;;;;;;;4.85;3.35;;;;;;;;;;5093054;28;20070;-67
2021/07/15 11:31:36;;;;;;;4.50;3.78;;;;;;;;;;5093034;28;20020;-67
2021/07/15 11:34:02;;;;;;;4.65;4.18;;;;;;;;;;5093072;28;20073;-68
2021/07/15 11:36:27;;;;;;;7.78;5.20;;;;;;;;;;5093154;28;20020;-67
2021/07/15 11:38:58;;;;;;;4.57;3.83;;;;;;;;;;5074820;28;20032;-67
2021/07/15 11:41:40;;;;;;;4.72;4.32;;;;;;;;;;5074338;28;20047;-67
2021/07/15 11:44:05;;;;;;;6.65;4.05;;;;;;;;;;5092956;28;20550;-67
2021/07/15 11:46:37;;;;;;;5.15;3.65;;;;;;;;;;5074721;28;20104;-67
2021/07/15 11:49:07;;;;;;;9.88;4.65;;;;;;;;;;5074776;28;20054;-67
2021/07/15 11:51:32;;;;;;;6.67;5.67;;;;;;;;;;5092905;28;20470;-67
2021/07/15 11:54:13;;;;;;;6.20;5.60;;;;;;;;;;5092882;28;20274;-66
2021/07/15 11:56:38;;;;;;;;;;;;;;;;;;5075081;28;20130;-67
2021/07/15 11:59:03;;;;;;;4.80;4.37;;;;;;;;;;5092865;28;19904;-67
2021/07/15 12:01:32;;;;;;;9.70;5.10;;;;;;;;;;5092814;28;20757;-67
2021/07/15 12:04:08;;;;;;;7.10;4.68;;;;;;;;;;5092823;28;20065;-68
2021/07/15 12:06:35;;;;;;;9.15;5.40;;;;;;;;;;5092890;28;20082;-67
2021/07/15 12:09:02;;;;;;;9.30;7.03;;;;;;;;;;5093367;28;20099;-67
2021/07/15 12:11:28;;;;;;;9.80;7.00;;;;;;;;;;5096529;28;20024;-67
2021/07/15 12:13:54;;;;;;;7.40;6.20;;;;;;;;;;5096587;28;20416;-67
2021/07/15 12:16:21;;;;;;;8.55;6.80;;;;;;;;;;5096488;28;20096;-66
2021/07/15 12:18:47;;;;;;;6.97;5.28;;;;;;;;;;5096476;28;20020;-66
2021/07/15 12:21:12;;;;;;;8.82;6.30;;;;;;;;;;5096450;28;20031;-66
2021/07/15 12:23:40;;;;;;;8.10;5.18;;;;;;;;;;5096295;28;20016;-65
2021/07/15 12:26:06;;;;;;;7.30;5.05;;;;;;;;;;5096174;28;20047;-66
2021/07/15 12:28:32;;;;;;;6.55;5.60;;;;;;;;;;5096148;28;20023;-66
2021/07/15 12:30:59;;;;;;;9.73;7.07;;;;;;;;;;5096206;28;20024;-66
2021/07/15 12:33:36;;;;;;;8.38;6.28;;;;;;;;;;5096004;28;20073;-66
2021/07/15 12:36:07;;;;;;;8.65;5.90;;;;;;;;;;5096109;28;20024;-66
2021/07/15 12:38:33;;;;;;;7.90;5.47;;;;;;;;;;5096188;28;20060;-65
2021/07/15 12:41:13;;;;;;;7.07;6.00;;;;;;;;;;5095464;28;20529;-66
2021/07/15 12:43:40;;;;;;;7.65;6.60;;;;;;;;;;5095919;28;20467;-66
2021/07/15 12:46:09;;;;;;;7.63;6.78;;;;;;;;;;5077699;28;20487;-66
2021/07/15 12:48:40;;;;;;;10.65;7.10;;;;;;;;;;5095763;28;20121;-65
2021/07/15 12:51:05;;;;;;;8.15;6.05;;;;;;;;;;5095782;28;20027;-65
2021/07/15 12:53:36;;;;;;;13.60;6.30;;;;;;;;;;5095649;28;20383;-66
2021/07/15 12:56:02;;;;;;;9.30;5.93;;;;;;;;;;5095637;28;20147;-66
2021/07/15 12:58:28;;;;;;;7.72;5.45;;;;;;;;;;5095638;28;20438;-66
2021/07/15 13:01:02;;;;;;;14.68;8.30;;;;;;;;;;5095663;28;20028;-66
2021/07/15 13:03:27;;;;;;;12.07;7.40;;;;;;;;;;5077554;28;20020;-66
2021/07/15 13:05:53;;;;;;;11.13;8.50;;;;;;;;;;5095589;28;20100;-66
2021/07/15 13:08:25;;;;;;;14.00;7.20;;;;;;;;;;5095620;28;20031;-66
2021/07/15 13:16:17;;;;;;;10.35;7.72;;;;;;;;;;5095315;28;19912;-66
2021/07/15 13:18:42;;;;;;;11.70;7.70;;;;;;;;;;5095217;28;20078;-66
2021/07/15 13:21:08;;;;;;;7.60;6.78;;;;;;;;;;5076983;28;20488;-66
2021/07/15 13:23:38;;;;;;;12.95;7.07;;;;;;;;;;5077034;28;20390;-66
2021/07/15 13:26:04;;;;;;;;;;;;;;;;;;5095519;28;20056;-66
2021/07/15 13:28:30;;;;;;;16.10;11.00;;;;;;;;;;5094858;28;19955;-66
2021/07/15 13:30:55;;;;;;;18.30;9.65;;;;;;;;;;5076880;28;20341;-66
2021/07/15 13:33:22;;;;;;;20.10;11.77;;;;;;;;;;5094945;28;20099;-66
2021/07/15 13:35:51;;;;;;;14.73;9.68;;;;;;;;;;5095017;28;20028;-66
2021/07/15 13:38:17;;;;;;;10.65;7.80;;;;;;;;;;5094843;28;20104;-66
2021/07/15 13:40:44;;;;;;;10.13;7.53;;;;;;;;;;5094227;28;20131;-65
2021/07/15 13:43:15;;;;;;;14.70;9.85;;;;;;;;;;5094692;28;20081;-66
2021/07/15 13:45:42;;;;;;;17.17;11.20;;;;;;;;;;5094724;28;20035;-66
2021/07/15 13:48:12;;;;;;;13.82;8.63;;;;;;;;;;5076688;28;20070;-66
2021/07/15 13:50:38;;;;;;;15.70;9.57;;;;;;;;;;5076578;28;20032;-66
2021/07/15 13:53:03;;;;;;;13.82;9.40;;;;;;;;;;5094467;28;20049;-66
2021/07/15 13:55:29;;;;;;;16.10;10.20;;;;;;;;;;5094590;28;20028;-66
2021/07/15 13:57:55;;;;;;;9.50;8.43;;;;;;;;;;5094524;28;20378;-66
2021/07/15 14:00:23;;;;;;;14.15;8.77;;;;;;;;;;5094487;28;20031;-66
2021/07/15 14:02:50;;;;;;;12.00;8.95;;;;;;;;;;5094555;28;20012;-66
2021/07/15 14:05:28;;;;;;;11.10;8.45;;;;;;;;;;5094451;28;20024;-66
2021/07/15 14:07:55;;;;;;;8.30;7.50;;;;;;;;;;5094283;28;20032;-67
2021/07/15 14:10:21;;;;;;;9.90;8.13;;;;;;;;;;5094301;28;20035;-66
2021/07/15 14:12:47;;;;;;;14.32;9.23;;;;;;;;;;5094296;28;20028;-66
2021/07/15 14:15:17;;;;;;;14.68;8.68;;;;;;;;;;5094216;28;20023;-67
2021/07/15 14:17:42;;;;;;;14.32;8.98;;;;;;;;;;5094107;28;20028;-66
2021/07/15 14:20:08;;;;;;;20.08;9.30;;;;;;;;;;5094111;28;20489;-66
2021/07/15 14:22:33;;;;;;;11.68;8.57;;;;;;;;;;5093640;28;20092;-66
2021/07/15 14:24:59;;;;;;;11.98;9.18;;;;;;;;;;5094123;28;20111;-65
2021/07/15 14:27:24;;;;;;;12.63;9.25;;;;;;;;;;5094021;28;20056;-66
2021/07/15 14:29:50;;;;;;;11.75;8.68;;;;;;;;;;5075858;28;20491;-65
2021/07/15 14:32:16;;;;;;;12.52;8.43;;;;;;;;;;5093327;28;20115;-66
2021/07/15 14:34:42;;;;;;;16.17;8.65;;;;;;;;;;5093794;28;20452;-65
2021/07/15 14:37:08;;;;;;;11.57;8.10;;;;;;;;;;5075670;28;20056;-65
2021/07/15 14:39:33;;;;;;;10.98;8.90;;;;;;;;;;5093413;28;20074;-66
2021/07/15 14:42:08;;;;;;;13.60;8.85;;;;;;;;;;5093315;28;20055;-69
2021/07/15 14:44:34;;;;;;;10.98;8.25;;;;;;;;;;5093973;28;20032;-68
2021/07/15 14:46:59;;;;;;;11.90;8.75;;;;;;;;;;5093619;28;20027;-68
2021/07/15 14:49:27;;;;;;;11.07;8.98;;;;;;;;;;5093915;28;20637;-68
2021/07/15 14:51:53;;;;;;;13.18;8.95;;;;;;;;;;5093771;28;20012;-68
2021/07/15 14:54:18;;;;;;;11.32;7.07;;;;;;;;;;5093855;28;20095;-68
2021/07/15 14:56:45;;;;;;;10.57;7.22;;;;;;;;;;5093748;28;20022;-69
2021/07/15 14:59:10;;;;;;;9.95;8.68;;;;;;;;;;5093734;28;20494;-68
2021/07/15 15:01:36;;;;;;;12.65;8.23;;;;;;;;;;5093568;28;20020;-68
2021/07/15 15:04:01;;;;;;;8.80;7.95;;;;;;;;;;5093241;28;20028;-64
2021/07/15 15:06:27;;;;;;;9.52;6.93;;;;;;;;;;5075578;28;20031;-64
2021/07/15 15:08:52;;;;;;;10.50;8.35;;;;;;;;;;5093441;28;20422;-64
2021/07/15 15:11:18;;;;;;;8.75;7.90;;;;;;;;;;5093511;28;20062;-62
2021/07/15 15:13:43;;;;;;;15.27;8.65;;;;;;;;;;5093508;28;20459;-62
2021/07/15 15:16:09;;;;;;;14.35;8.70;;;;;;;;;;5075549;28;20035;-62
2021/07/15 15:18:34;;;;;;;14.45;9.02;;;;;;;;;;5075472;28;20036;-67
2021/07/15 15:21:00;;;;;;;12.43;8.65;;;;;;;;;;5075207;28;20028;-67
2021/07/15 15:23:26;;;;;;;11.60;8.10;;;;;;;;;;5075197;28;20119;-67
2021/07/15 15:25:57;;;;;;;12.02;7.38;;;;;;;;;;5093556;28;20039;-67
2021/07/15 15:28:23;;;;;;;9.07;6.80;;;;;;;;;;5093323;28;20165;-68
2021/07/15 15:30:49;;;;;;;14.60;10.23;;;;;;;;;;5093599;28;20050;-68
2021/07/15 15:33:15;;;;;;;14.15;10.57;;;;;;;;;;5093571;28;20024;-67
2021/07/15 15:35:40;;;;;;;11.70;9.25;;;;;;;;;;5093100;28;20091;-68
2021/07/15 15:38:06;;;;;;;12.57;8.65;;;;;;;;;;5093448;28;20039;-68
2021/07/15 15:40:31;;;;;;;10.07;8.38;;;;;;;;;;5092504;28;20150;-68
2021/07/15 15:42:56;;;;;;;10.07;8.32;;;;;;;;;;5092915;28;20078;-68
2021/07/15 15:45:22;;;;;;;18.33;8.95;;;;;;;;;;5096040;28;20114;-68
2021/07/15 15:47:52;;;;;;;14.13;8.18;;;;;;;;;;5078967;28;20479;-67
2021/07/15 15:50:18;;;;;;;13.32;9.63;;;;;;;;;;5078970;28;20020;-69
2021/07/15 15:52:43;;;;;;;11.75;8.20;;;;;;;;;;5078841;28;20103;-69
2021/07/15 15:55:12;;;;;;;9.65;8.43;;;;;;;;;;5096872;28;20416;-68
2021/07/15 15:57:38;;;;;;;12.55;7.30;;;;;;;;;;5096924;28;20107;-68
2021/07/15 16:00:04;;;;;;;11.13;7.60;;;;;;;;;;5096794;28;20055;-69
2021/07/15 16:02:37;;;;;;;14.63;8.63;;;;;;;;;;5096715;28;20035;-68
2021/07/15 16:05:05;;;;;;;11.02;7.57;;;;;;;;;;5096634;28;20028;-68
2021/07/15 16:07:30;;;;;;;12.02;9.02;;;;;;;;;;5096637;28;20073;-68
2021/07/15 16:10:00;;;;;;;11.18;8.25;;;;;;;;;;5096736;28;20028;-62
2021/07/15 16:12:30;;;;;;;17.98;11.05;;;;;;;;;;5096795;28;20028;-65
2021/07/15 16:15:06;;;;;;;21.00;12.77;;;;;;;;;;5096763;28;20127;-68
2021/07/15 16:17:51;;;;;;;19.42;10.45;;;;;;;;;;5078571;28;20070;-69
2021/07/15 16:20:28;;;;;;;10.07;7.68;;;;;;;;;;5096541;28;20028;-68
2021/07/15 16:22:56;;;;;;;13.80;7.45;;;;;;;;;;5096546;28;20032;-67
2021/07/15 16:25:33;;;;;;;10.63;8.25;;;;;;;;;;5096441;28;20065;-67
2021/07/15 16:28:07;;;;;;;16.38;7.88;;;;;;;;;;5078143;28;20035;-67
2021/07/15 16:30:41;;;;;;;10.18;7.68;;;;;;;;;;5096283;28;20020;-62
2021/07/15 16:33:09;;;;;;;12.30;8.85;;;;;;;;;;5096426;28;20024;-67
2021/07/15 16:35:35;;;;;;;15.48;9.07;;;;;;;;;;5095853;28;20031;-67
2021/07/15 16:38:00;;;;;;;16.42;10.57;;;;;;;;;;5096315;28;20066;-67
2021/07/15 16:40:26;;;;;;;16.10;9.63;;;;;;;;;;5095626;28;20036;-67
2021/07/15 16:42:52;;;;;;;12.90;8.80;;;;;;;;;;5096231;28;20036;-67
2021/07/15 16:45:19;;;;;;;12.05;8.68;;;;;;;;;;5096422;28;20031;-67
2021/07/15 16:47:46;;;;;;;14.20;8.70;;;;;;;;;;5096303;28;20043;-67
2021/07/15 16:50:13;;;;;;;15.98;10.40;;;;;;;;;;5096315;28;20012;-67
2021/07/15 16:52:38;;;;;;;18.08;10.40;;;;;;;;;;5096186;28;20032;-68
2021/07/15 16:55:05;;;;;;;20.45;13.25;;;;;;;;;;5095677;28;20161;-67
2021/07/15 16:57:30;;;;;;;12.18;9.00;;;;;;;;;;5078177;28;20028;-67
2021/07/15 16:59:56;;;;;;;11.60;8.90;;;;;;;;;;5096229;28;20103;-67
2021/07/15 17:02:21;;;;;;;17.27;10.90;;;;;;;;;;5096105;28;20031;-67
2021/07/15 17:04:47;;;;;;;13.27;9.18;;;;;;;;;;5096033;28;20065;-67
2021/07/15 17:07:13;;;;;;;10.38;8.65;;;;;;;;;;5096028;28;20058;-67
2021/07/15 17:09:39;;;;;;;16.42;9.35;;;;;;;;;;5095770;28;20049;-67
2021/07/15 17:12:05;;;;;;;11.95;8.77;;;;;;;;;;5095825;28;20495;-67
2021/07/15 17:14:31;;;;;;;11.90;9.25;;;;;;;;;;5095681;28;20016;-67
2021/07/15 17:16:57;;;;;;;9.55;8.48;;;;;;;;;;5095700;28;20081;-68
2021/07/15 17:19:23;;;;;;;15.98;9.23;;;;;;;;;;5095667;28;20052;-67
2021/07/15 17:21:48;;;;;;;11.57;8.52;;;;;;;;;;5095660;28;20020;-67
2021/07/15 17:24:15;;;;;;;11.45;8.32;;;;;;;;;;5077429;28;20480;-67
2021/07/15 17:26:41;;;;;;;9.93;8.05;;;;;;;;;;5077248;28;20039;-66
2021/07/15 17:29:06;;;;;;;10.90;8.02;;;;;;;;;;5095644;28;20016;-65
2021/07/15 17:31:32;;;;;;;9.70;8.55;;;;;;;;;;5095264;28;20027;-65
2021/07/15 17:33:59;;;;;;;12.32;8.60;;;;;;;;;;5077175;28;20491;-64
2021/07/15 17:36:26;;;;;;;10.32;8.35;;;;;;;;;;5095461;28;20032;-66
2021/07/15 17:38:51;;;;;;;10.70;9.05;;;;;;;;;;5094746;28;20042;-67
2021/07/15 17:41:18;;;;;;;11.27;8.32;;;;;;;;;;5094707;28;20044;-69
2021/07/15 17:43:44;;;;;;;10.27;8.30;;;;;;;;;;5095089;28;20043;-66
2021/07/15 17:46:10;;;;;;;13.43;8.45;;;;;;;;;;5060480;28;20048;-67
2021/07/15 17:48:36;;;;;;;10.35;8.52;;;;;;;;;;5094883;28;20020;-66
2021/07/15 17:51:02;;;;;;;12.02;8.80;;;;;;;;;;5094798;28;20035;-67
2021/07/15 17:53:29;;;;;;;14.88;8.60;;;;;;;;;;5076807;28;20043;-67
2021/07/15 17:55:55;;;;;;;12.10;8.57;;;;;;;;;;5094746;28;20024;-67
2021/07/15 17:58:20;;;;;;;15.00;9.40;;;;;;;;;;5076634;28;20436;-66
2021/07/15 18:00:46;;;;;;;19.80;9.23;;;;;;;;;;5094954;28;20028;-67
2021/07/15 18:03:11;;;;;;;11.80;8.55;;;;;;;;;;5094807;28;20050;-67
2021/07/15 18:05:37;;;;;;;10.75;8.18;;;;;;;;;;5094826;28;20024;-67